sensor_id;sensor_type;location;lat;lon;timestamp;pressure;altitude;pressure_sealevel;temperature
69545;BMP180;56766;52.260;20.746;2022-08-11T00:00:43;101395.80;;;13.40
69545;BMP180;56766;52.260;20.746;2022-08-11T00:03:14;101386.60;;;13.30
69545;BMP180;56766;52.260;20.746;2022-08-11T00:05:52;101388.40;;;13.30
69545;BMP180;56766;52.260;20.746;2022-08-11T00:08:31;101388.00;;;13.30
69545;BMP180;56766;52.260;20.746;2022-08-11T00:11:05;101390.60;;;13.20
69545;BMP180;56766;52.260;20.746;2022-08-11T00:13:38;101386.40;;;13.20
69545;BMP180;56766;52.260;20.746;2022-08-11T00:16:13;101389.20;;;13.20
69545;BMP180;56766;52.260;20.746;2022-08-11T00:18:48;101388.40;;;13.20
69545;BMP180;56766;52.260;20.746;2022-08-11T00:21:18;101388.60;;;13.20
69545;BMP180;56766;52.260;20.746;2022-08-11T00:24:02;101391.20;;;13.20
69545;BMP180;56766;52.260;20.746;2022-08-11T00:26:31;101386.60;;;13.20
69545;BMP180;56766;52.260;20.746;2022-08-11T00:29:11;101390.20;;;13.20
69545;BMP180;56766;52.260;20.746;2022-08-11T00:31:53;101386.80;;;13.20
69545;BMP180;56766;52.260;20.746;2022-08-11T00:34:27;101388.40;;;13.20
69545;BMP180;56766;52.260;20.746;2022-08-11T00:37:10;101383.20;;;13.20
69545;BMP180;56766;52.260;20.746;2022-08-11T00:39:50;101385.20;;;13.14
69545;BMP180;56766;52.260;20.746;2022-08-11T00:43:11;101386.80;;;13.14
69545;BMP180;56766;52.260;20.746;2022-08-11T01:39:30;101386.20;;;12.70
69545;BMP180;56766;52.260;20.746;2022-08-11T01:51:35;101386.40;;;12.70
69545;BMP180;56766;52.260;20.746;2022-08-11T01:59:34;101384.60;;;12.50
69545;BMP180;56766;52.260;20.746;2022-08-11T02:02:38;101388.40;;;12.50
69545;BMP180;56766;52.260;20.746;2022-08-11T02:08:48;101383.40;;;12.40
69545;BMP180;56766;52.260;20.746;2022-08-11T02:11:31;101384.00;;;12.40
69545;BMP180;56766;52.260;20.746;2022-08-11T02:14:27;101387.00;;;12.34
69545;BMP180;56766;52.260;20.746;2022-08-11T02:20:23;101392.40;;;12.30
69545;BMP180;56766;52.260;20.746;2022-08-11T02:23:54;101391.40;;;12.22
69545;BMP180;56766;52.260;20.746;2022-08-11T02:26:27;101389.80;;;12.30
69545;BMP180;56766;52.260;20.746;2022-08-11T02:32:24;101397.00;;;12.30
69545;BMP180;56766;52.260;20.746;2022-08-11T02:35:26;101395.80;;;12.30
69545;BMP180;56766;52.260;20.746;2022-08-11T02:48:08;101397.80;;;12.30
69545;BMP180;56766;52.260;20.746;2022-08-11T02:51:24;101399.40;;;12.20
69545;BMP180;56766;52.260;20.746;2022-08-11T02:57:32;101397.00;;;12.10
69545;BMP180;56766;52.260;20.746;2022-08-11T03:00:14;101404.40;;;12.00
69545;BMP180;56766;52.260;20.746;2022-08-11T03:03:07;101397.20;;;12.00
69545;BMP180;56766;52.260;20.746;2022-08-11T03:06:03;101407.80;;;12.00
69545;BMP180;56766;52.260;20.746;2022-08-11T03:09:18;101398.80;;;11.92
69545;BMP180;56766;52.260;20.746;2022-08-11T03:12:15;101398.20;;;11.90
69545;BMP180;56766;52.260;20.746;2022-08-11T03:15:15;101399.40;;;12.00
69545;BMP180;56766;52.260;20.746;2022-08-11T03:18:23;101401.00;;;12.00
69545;BMP180;56766;52.260;20.746;2022-08-11T03:21:23;101397.60;;;12.00
69545;BMP180;56766;52.260;20.746;2022-08-11T03:24:02;101398.20;;;12.06
69545;BMP180;56766;52.260;20.746;2022-08-11T03:27:04;101403.60;;;12.10
69545;BMP180;56766;52.260;20.746;2022-08-11T03:32:31;101407.20;;;12.06
69545;BMP180;56766;52.260;20.746;2022-08-11T03:35:02;101402.80;;;12.08
69545;BMP180;56766;52.260;20.746;2022-08-11T03:38:01;101406.20;;;12.02
69545;BMP180;56766;52.260;20.746;2022-08-11T03:41:05;101407.40;;;12.00
69545;BMP180;56766;52.260;20.746;2022-08-11T03:47:33;101411.00;;;12.10
69545;BMP180;56766;52.260;20.746;2022-08-11T03:53:22;101414.00;;;12.20
69545;BMP180;56766;52.260;20.746;2022-08-11T04:11:00;101415.80;;;12.52
69545;BMP180;56766;52.260;20.746;2022-08-11T04:17:49;101414.40;;;12.74
69545;BMP180;56766;52.260;20.746;2022-08-11T04:27:00;101411.60;;;13.10
69545;BMP180;56766;52.260;20.746;2022-08-11T04:35:38;101418.00;;;13.50
69545;BMP180;56766;52.260;20.746;2022-08-11T04:39:06;101417.00;;;13.60
69545;BMP180;56766;52.260;20.746;2022-08-11T04:42:18;101416.20;;;13.70
69545;BMP180;56766;52.260;20.746;2022-08-11T04:56:07;101412.80;;;14.70
69545;BMP180;56766;52.260;20.746;2022-08-11T04:59:42;101412.40;;;15.24
69545;BMP180;56766;52.260;20.746;2022-08-11T05:05:30;101415.20;;;15.84
69545;BMP180;56766;52.260;20.746;2022-08-11T05:11:38;101416.60;;;16.40
69545;BMP180;56766;52.260;20.746;2022-08-11T05:17:04;101412.20;;;16.88
69545;BMP180;56766;52.260;20.746;2022-08-11T05:19:53;101412.80;;;17.10
69545;BMP180;56766;52.260;20.746;2022-08-11T05:22:49;101414.40;;;17.30
69545;BMP180;56766;52.260;20.746;2022-08-11T05:25:43;101421.20;;;17.50
69545;BMP180;56766;52.260;20.746;2022-08-11T05:28:53;101415.40;;;17.76
69545;BMP180;56766;52.260;20.746;2022-08-11T05:31:54;101413.20;;;18.00
69545;BMP180;56766;52.260;20.746;2022-08-11T05:34:51;101415.20;;;18.20
69545;BMP180;56766;52.260;20.746;2022-08-11T05:40:12;101410.80;;;18.40
69545;BMP180;56766;52.260;20.746;2022-08-11T05:43:04;101412.40;;;18.50
69545;BMP180;56766;52.260;20.746;2022-08-11T05:46:04;101413.20;;;18.70
69545;BMP180;56766;52.260;20.746;2022-08-11T05:48:52;101416.20;;;18.86
69545;BMP180;56766;52.260;20.746;2022-08-11T05:51:42;101415.00;;;19.00
69545;BMP180;56766;52.260;20.746;2022-08-11T05:54:29;101413.60;;;19.14
69545;BMP180;56766;52.260;20.746;2022-08-11T05:57:30;101409.60;;;19.30
69545;BMP180;56766;52.260;20.746;2022-08-11T06:00:02;101413.20;;;19.40
69545;BMP180;56766;52.260;20.746;2022-08-11T06:02:31;101409.20;;;19.46
69545;BMP180;56766;52.260;20.746;2022-08-11T06:05:01;101416.40;;;19.50
69545;BMP180;56766;52.260;20.746;2022-08-11T06:07:30;101414.00;;;19.60
69545;BMP180;56766;52.260;20.746;2022-08-11T06:09:59;101414.20;;;19.70
69545;BMP180;56766;52.260;20.746;2022-08-11T06:12:33;101417.60;;;19.80
69545;BMP180;56766;52.260;20.746;2022-08-11T06:15:09;101422.80;;;19.94
69545;BMP180;56766;52.260;20.746;2022-08-11T06:17:45;101417.20;;;20.10
69545;BMP180;56766;52.260;20.746;2022-08-11T06:20:16;101418.60;;;20.20
69545;BMP180;56766;52.260;20.746;2022-08-11T06:22:56;101419.00;;;20.30
69545;BMP180;56766;52.260;20.746;2022-08-11T06:25:31;101420.40;;;20.30
69545;BMP180;56766;52.260;20.746;2022-08-11T06:28:06;101416.40;;;20.30
69545;BMP180;56766;52.260;20.746;2022-08-11T06:30:40;101413.40;;;20.30
69545;BMP180;56766;52.260;20.746;2022-08-11T06:33:19;101410.80;;;20.38
69545;BMP180;56766;52.260;20.746;2022-08-11T06:36:15;101410.00;;;20.34
69545;BMP180;56766;52.260;20.746;2022-08-11T06:42:02;101405.00;;;20.42
69545;BMP180;56766;52.260;20.746;2022-08-11T06:45:04;101403.60;;;20.50
69545;BMP180;56766;52.260;20.746;2022-08-11T06:47:35;101401.60;;;20.52
69545;BMP180;56766;52.260;20.746;2022-08-11T06:50:05;101408.80;;;20.60
69545;BMP180;56766;52.260;20.746;2022-08-11T06:52:53;101403.20;;;20.60
69545;BMP180;56766;52.260;20.746;2022-08-11T06:55:26;101408.20;;;20.60
69545;BMP180;56766;52.260;20.746;2022-08-11T06:58:19;101408.00;;;20.70
69545;BMP180;56766;52.260;20.746;2022-08-11T07:01:13;101403.80;;;20.72
69545;BMP180;56766;52.260;20.746;2022-08-11T07:03:52;101401.60;;;20.80
69545;BMP180;56766;52.260;20.746;2022-08-11T07:06:32;101410.20;;;20.90
69545;BMP180;56766;52.260;20.746;2022-08-11T07:09:42;101411.00;;;21.00
69545;BMP180;56766;52.260;20.746;2022-08-11T07:12:39;101403.60;;;21.10
69545;BMP180;56766;52.260;20.746;2022-08-11T07:15:32;101394.00;;;21.20
69545;BMP180;56766;52.260;20.746;2022-08-11T07:18:20;101383.40;;;21.32
69545;BMP180;56766;52.260;20.746;2022-08-11T07:24:16;101381.20;;;21.50
69545;BMP180;56766;52.260;20.746;2022-08-11T07:27:19;101376.00;;;21.60
69545;BMP180;56766;52.260;20.746;2022-08-11T07:30:09;101379.80;;;21.70
69545;BMP180;56766;52.260;20.746;2022-08-11T07:32:59;101378.60;;;21.80
69545;BMP180;56766;52.260;20.746;2022-08-11T07:35:35;101377.00;;;21.90
69545;BMP180;56766;52.260;20.746;2022-08-11T07:38:16;101382.00;;;22.00
69545;BMP180;56766;52.260;20.746;2022-08-11T07:40:46;101385.80;;;22.10
69545;BMP180;56766;52.260;20.746;2022-08-11T07:43:14;101381.20;;;22.20
69545;BMP180;56766;52.260;20.746;2022-08-11T07:45:44;101387.60;;;22.30
69545;BMP180;56766;52.260;20.746;2022-08-11T07:48:33;101382.40;;;22.46
69545;BMP180;56766;52.260;20.746;2022-08-11T07:51:20;101387.40;;;22.60
69545;BMP180;56766;52.260;20.746;2022-08-11T07:54:08;101381.20;;;22.70
69545;BMP180;56766;52.260;20.746;2022-08-11T07:56:38;101381.20;;;22.80
69545;BMP180;56766;52.260;20.746;2022-08-11T07:59:06;101382.20;;;22.90
69545;BMP180;56766;52.260;20.746;2022-08-11T08:01:54;101384.80;;;23.00
69545;BMP180;56766;52.260;20.746;2022-08-11T08:04:41;101384.60;;;23.00
69545;BMP180;56766;52.260;20.746;2022-08-11T08:07:27;101377.40;;;23.08
69545;BMP180;56766;52.260;20.746;2022-08-11T08:10:16;101381.80;;;23.20
69545;BMP180;56766;52.260;20.746;2022-08-11T08:13:05;101377.00;;;23.30
69545;BMP180;56766;52.260;20.746;2022-08-11T08:15:53;101379.80;;;23.40
69545;BMP180;56766;52.260;20.746;2022-08-11T08:18:40;101380.60;;;23.50
69545;BMP180;56766;52.260;20.746;2022-08-11T08:21:08;101382.00;;;23.56
69545;BMP180;56766;52.260;20.746;2022-08-11T08:23:44;101377.40;;;23.70
69545;BMP180;56766;52.260;20.746;2022-08-11T08:26:15;101372.80;;;23.78
69545;BMP180;56766;52.260;20.746;2022-08-11T08:29:05;101381.20;;;23.90
69545;BMP180;56766;52.260;20.746;2022-08-11T08:31:54;101371.00;;;24.00
69545;BMP180;56766;52.260;20.746;2022-08-11T08:34:23;101370.60;;;24.10
69545;BMP180;56766;52.260;20.746;2022-08-11T08:36:51;101370.00;;;24.20
69545;BMP180;56766;52.260;20.746;2022-08-11T08:39:19;101369.00;;;24.10
69545;BMP180;56766;52.260;20.746;2022-08-11T08:41:54;101373.00;;;24.20
69545;BMP180;56766;52.260;20.746;2022-08-11T08:44:24;101369.60;;;24.20
69545;BMP180;56766;52.260;20.746;2022-08-11T08:46:57;101363.20;;;24.30
69545;BMP180;56766;52.260;20.746;2022-08-11T08:49:39;101362.20;;;24.50
69545;BMP180;56766;52.260;20.746;2022-08-11T08:52:13;101355.80;;;24.60
69545;BMP180;56766;52.260;20.746;2022-08-11T08:54:47;101367.60;;;24.70
69545;BMP180;56766;52.260;20.746;2022-08-11T08:57:17;101357.20;;;24.78
69545;BMP180;56766;52.260;20.746;2022-08-11T08:59:48;101360.60;;;24.70
69545;BMP180;56766;52.260;20.746;2022-08-11T09:02:25;101361.00;;;24.44
69545;BMP180;56766;52.260;20.746;2022-08-11T09:04:53;101361.20;;;24.10
69545;BMP180;56766;52.260;20.746;2022-08-11T09:07:22;101368.20;;;24.00
69545;BMP180;56766;52.260;20.746;2022-08-11T09:09:57;101361.80;;;23.92
69545;BMP180;56766;52.260;20.746;2022-08-11T09:12:31;101362.00;;;24.20
69545;BMP180;56766;52.260;20.746;2022-08-11T09:15:04;101362.80;;;24.60
69545;BMP180;56766;52.260;20.746;2022-08-11T09:17:46;101361.40;;;25.00
69545;BMP180;56766;52.260;20.746;2022-08-11T09:20:24;101363.40;;;25.40
69545;BMP180;56766;52.260;20.746;2022-08-11T09:22:57;101360.20;;;25.40
69545;BMP180;56766;52.260;20.746;2022-08-11T09:25:44;101359.00;;;25.50
69545;BMP180;56766;52.260;20.746;2022-08-11T09:28:31;101353.20;;;25.78
69545;BMP180;56766;52.260;20.746;2022-08-11T09:31:01;101351.60;;;26.04
69545;BMP180;56766;52.260;20.746;2022-08-11T09:33:30;101356.40;;;26.20
69545;BMP180;56766;52.260;20.746;2022-08-11T09:36:00;101351.60;;;26.10
69545;BMP180;56766;52.260;20.746;2022-08-11T09:38:52;101347.60;;;26.20
69545;BMP180;56766;52.260;20.746;2022-08-11T09:41:39;101346.40;;;26.26
69545;BMP180;56766;52.260;20.746;2022-08-11T09:44:09;101344.20;;;26.50
69545;BMP180;56766;52.260;20.746;2022-08-11T09:46:56;101339.40;;;26.94
69545;BMP180;56766;52.260;20.746;2022-08-11T09:49:27;101335.40;;;27.30
69545;BMP180;56766;52.260;20.746;2022-08-11T09:51:55;101337.60;;;27.66
69545;BMP180;56766;52.260;20.746;2022-08-11T09:54:25;101337.40;;;27.90
69545;BMP180;56766;52.260;20.746;2022-08-11T09:56:53;101336.00;;;28.00
69545;BMP180;56766;52.260;20.746;2022-08-11T09:59:40;101334.80;;;28.10
69545;BMP180;56766;52.260;20.746;2022-08-11T10:02:10;101332.80;;;28.10
69545;BMP180;56766;52.260;20.746;2022-08-11T10:04:43;101333.40;;;28.10
69545;BMP180;56766;52.260;20.746;2022-08-11T10:07:15;101329.60;;;28.18
69545;BMP180;56766;52.260;20.746;2022-08-11T10:09:58;101328.40;;;28.32
69545;BMP180;56766;52.260;20.746;2022-08-11T10:12:37;101331.00;;;28.14
69545;BMP180;56766;52.260;20.746;2022-08-11T10:15:11;101327.00;;;28.00
69545;BMP180;56766;52.260;20.746;2022-08-11T10:18:08;101327.60;;;28.00
69545;BMP180;56766;52.260;20.746;2022-08-11T10:21:09;101325.40;;;27.52
69545;BMP180;56766;52.260;20.746;2022-08-11T10:23:38;101322.40;;;27.00
69545;BMP180;56766;52.260;20.746;2022-08-11T10:26:28;101329.80;;;26.66
69545;BMP180;56766;52.260;20.746;2022-08-11T10:29:53;101321.20;;;26.02
69545;BMP180;56766;52.260;20.746;2022-08-11T10:32:40;101317.60;;;25.80
69545;BMP180;56766;52.260;20.746;2022-08-11T10:35:28;101313.80;;;26.20
69545;BMP180;56766;52.260;20.746;2022-08-11T10:37:58;101307.00;;;26.58
69545;BMP180;56766;52.260;20.746;2022-08-11T10:40:27;101306.00;;;26.80
69545;BMP180;56766;52.260;20.746;2022-08-11T10:42:59;101295.00;;;26.90
69545;BMP180;56766;52.260;20.746;2022-08-11T10:45:43;101292.20;;;27.12
69545;BMP180;56766;52.260;20.746;2022-08-11T10:48:36;101295.20;;;27.12
69545;BMP180;56766;52.260;20.746;2022-08-11T10:51:04;101298.20;;;26.72
69545;BMP180;56766;52.260;20.746;2022-08-11T10:53:47;101289.60;;;26.50
69545;BMP180;56766;52.260;20.746;2022-08-11T10:56:38;101288.00;;;26.54
69545;BMP180;56766;52.260;20.746;2022-08-11T10:59:28;101286.40;;;26.48
69545;BMP180;56766;52.260;20.746;2022-08-11T11:01:58;101270.00;;;26.50
69545;BMP180;56766;52.260;20.746;2022-08-11T11:07:35;101277.40;;;27.06
69545;BMP180;56766;52.260;20.746;2022-08-11T11:10:06;101275.40;;;27.40
69545;BMP180;56766;52.260;20.746;2022-08-11T11:12:38;101271.40;;;27.60
69545;BMP180;56766;52.260;20.746;2022-08-11T11:15:30;101264.40;;;27.80
69545;BMP180;56766;52.260;20.746;2022-08-11T11:18:32;101258.60;;;27.92
69545;BMP180;56766;52.260;20.746;2022-08-11T11:21:08;101254.20;;;28.10
69545;BMP180;56766;52.260;20.746;2022-08-11T11:30:40;101243.40;;;28.98
69545;BMP180;56766;52.260;20.746;2022-08-11T11:36:27;101235.60;;;28.40
69545;BMP180;56766;52.260;20.746;2022-08-11T11:38:59;101238.40;;;28.00
69545;BMP180;56766;52.260;20.746;2022-08-11T11:41:28;101244.40;;;27.46
69545;BMP180;56766;52.260;20.746;2022-08-11T11:43:56;101244.80;;;27.04
69545;BMP180;56766;52.260;20.746;2022-08-11T11:46:27;101245.20;;;26.70
69545;BMP180;56766;52.260;20.746;2022-08-11T11:48:56;101247.00;;;26.34
69545;BMP180;56766;52.260;20.746;2022-08-11T11:51:27;101246.40;;;26.20
69545;BMP180;56766;52.260;20.746;2022-08-11T11:53:54;101235.40;;;26.50
69545;BMP180;56766;52.260;20.746;2022-08-11T11:56:24;101229.60;;;26.50
69545;BMP180;56766;52.260;20.746;2022-08-11T11:58:53;101232.80;;;26.44
69545;BMP180;56766;52.260;20.746;2022-08-11T12:01:39;101226.60;;;26.22
69545;BMP180;56766;52.260;20.746;2022-08-11T12:04:06;101227.60;;;26.26
69545;BMP180;56766;52.260;20.746;2022-08-11T12:06:34;101220.60;;;26.30
69545;BMP180;56766;52.260;20.746;2022-08-11T12:09:02;101221.40;;;26.60
69545;BMP180;56766;52.260;20.746;2022-08-11T12:11:31;101217.00;;;27.00
69545;BMP180;56766;52.260;20.746;2022-08-11T12:14:19;101219.80;;;27.20
69545;BMP180;56766;52.260;20.746;2022-08-11T12:16:47;101216.40;;;27.30
69545;BMP180;56766;52.260;20.746;2022-08-11T12:19:18;101211.20;;;27.10
69545;BMP180;56766;52.260;20.746;2022-08-11T12:21:48;101208.80;;;27.22
69545;BMP180;56766;52.260;20.746;2022-08-11T12:24:36;101199.40;;;27.52
69545;BMP180;56766;52.260;20.746;2022-08-11T12:27:28;101188.60;;;28.00
69545;BMP180;56766;52.260;20.746;2022-08-11T12:30:00;101191.20;;;28.42
69545;BMP180;56766;52.260;20.746;2022-08-11T12:32:39;101189.60;;;28.60
69545;BMP180;56766;52.260;20.746;2022-08-11T12:35:07;101193.80;;;28.38
69545;BMP180;56766;52.260;20.746;2022-08-11T12:37:44;101194.80;;;27.90
69545;BMP180;56766;52.260;20.746;2022-08-11T12:40:16;101195.20;;;27.28
69545;BMP180;56766;52.260;20.746;2022-08-11T12:43:10;101195.20;;;26.68
69545;BMP180;56766;52.260;20.746;2022-08-11T12:46:03;101201.00;;;26.20
69545;BMP180;56766;52.260;20.746;2022-08-11T12:48:38;101199.00;;;25.90
69545;BMP180;56766;52.260;20.746;2022-08-11T12:51:33;101198.40;;;26.10
69545;BMP180;56766;52.260;20.746;2022-08-11T12:57:37;101181.20;;;25.90
69545;BMP180;56766;52.260;20.746;2022-08-11T13:00:25;101179.80;;;25.80
69545;BMP180;56766;52.260;20.746;2022-08-11T13:03:13;101180.80;;;25.62
69545;BMP180;56766;52.260;20.746;2022-08-11T13:06:03;101181.40;;;25.58
69545;BMP180;56766;52.260;20.746;2022-08-11T13:08:36;101182.60;;;25.50
69545;BMP180;56766;52.260;20.746;2022-08-11T13:11:04;101177.60;;;25.50
69545;BMP180;56766;52.260;20.746;2022-08-11T13:13:53;101179.40;;;25.40
69545;BMP180;56766;52.260;20.746;2022-08-11T13:16:34;101175.80;;;25.30
69545;BMP180;56766;52.260;20.746;2022-08-11T13:19:23;101175.20;;;25.30
69545;BMP180;56766;52.260;20.746;2022-08-11T13:21:52;101167.80;;;25.40
69545;BMP180;56766;52.260;20.746;2022-08-11T13:24:21;101168.40;;;25.76
69545;BMP180;56766;52.260;20.746;2022-08-11T13:26:50;101167.00;;;26.10
69545;BMP180;56766;52.260;20.746;2022-08-11T13:29:24;101166.60;;;26.52
69545;BMP180;56766;52.260;20.746;2022-08-11T13:31:55;101168.40;;;26.94
69545;BMP180;56766;52.260;20.746;2022-08-11T13:34:26;101163.00;;;27.34
69545;BMP180;56766;52.260;20.746;2022-08-11T13:36:58;101158.40;;;27.80
69545;BMP180;56766;52.260;20.746;2022-08-11T13:39:32;101160.00;;;28.10
69545;BMP180;56766;52.260;20.746;2022-08-11T13:42:03;101158.80;;;28.10
69545;BMP180;56766;52.260;20.746;2022-08-11T13:44:35;101163.60;;;27.86
69545;BMP180;56766;52.260;20.746;2022-08-11T13:47:07;101159.20;;;27.46
69545;BMP180;56766;52.260;20.746;2022-08-11T13:49:39;101163.20;;;27.00
69545;BMP180;56766;52.260;20.746;2022-08-11T13:52:14;101162.80;;;26.60
69545;BMP180;56766;52.260;20.746;2022-08-11T13:54:46;101167.40;;;26.20
69545;BMP180;56766;52.260;20.746;2022-08-11T13:57:14;101173.20;;;25.92
69545;BMP180;56766;52.260;20.746;2022-08-11T13:59:51;101170.40;;;25.70
69545;BMP180;56766;52.260;20.746;2022-08-11T14:02:26;101171.40;;;25.60
69545;BMP180;56766;52.260;20.746;2022-08-11T14:05:06;101171.20;;;25.50
69545;BMP180;56766;52.260;20.746;2022-08-11T14:07:38;101170.80;;;25.30
69545;BMP180;56766;52.260;20.746;2022-08-11T14:10:07;101171.80;;;25.20
69545;BMP180;56766;52.260;20.746;2022-08-11T14:12:42;101173.60;;;25.20
69545;BMP180;56766;52.260;20.746;2022-08-11T14:15:35;101169.20;;;25.18
69545;BMP180;56766;52.260;20.746;2022-08-11T14:18:12;101174.80;;;25.20
69545;BMP180;56766;52.260;20.746;2022-08-11T14:20:42;101171.60;;;25.30
69545;BMP180;56766;52.260;20.746;2022-08-11T14:23:37;101176.20;;;25.70
69545;BMP180;56766;52.260;20.746;2022-08-11T14:26:07;101175.40;;;26.14
69545;BMP180;56766;52.260;20.746;2022-08-11T14:29:11;101171.60;;;26.58
69545;BMP180;56766;52.260;20.746;2022-08-11T14:32:00;101174.40;;;26.90
69545;BMP180;56766;52.260;20.746;2022-08-11T14:34:31;101178.60;;;27.00
69545;BMP180;56766;52.260;20.746;2022-08-11T14:37:08;101185.60;;;26.80
69545;BMP180;56766;52.260;20.746;2022-08-11T14:40:00;101202.20;;;26.42
69545;BMP180;56766;52.260;20.746;2022-08-11T14:42:47;101205.20;;;25.92
69545;BMP180;56766;52.260;20.746;2022-08-11T14:45:33;101204.40;;;25.68
69545;BMP180;56766;52.260;20.746;2022-08-11T14:48:20;101203.60;;;25.60
69545;BMP180;56766;52.260;20.746;2022-08-11T14:50:47;101199.80;;;25.50
69545;BMP180;56766;52.260;20.746;2022-08-11T14:53:14;101200.20;;;25.50
69545;BMP180;56766;52.260;20.746;2022-08-11T14:55:43;101206.20;;;25.52
69545;BMP180;56766;52.260;20.746;2022-08-11T14:58:30;101207.80;;;25.50
69545;BMP180;56766;52.260;20.746;2022-08-11T15:01:02;101201.00;;;25.38
69545;BMP180;56766;52.260;20.746;2022-08-11T15:03:50;101201.40;;;25.22
69545;BMP180;56766;52.260;20.746;2022-08-11T15:06:18;101203.80;;;25.20
69545;BMP180;56766;52.260;20.746;2022-08-11T15:08:45;101204.00;;;25.30
69545;BMP180;56766;52.260;20.746;2022-08-11T15:11:28;101201.80;;;25.40
69545;BMP180;56766;52.260;20.746;2022-08-11T15:14:15;101204.40;;;25.50
69545;BMP180;56766;52.260;20.746;2022-08-11T15:17:08;101202.40;;;25.40
69545;BMP180;56766;52.260;20.746;2022-08-11T15:19:40;101200.40;;;25.20
69545;BMP180;56766;52.260;20.746;2022-08-11T15:22:28;101201.80;;;24.98
69545;BMP180;56766;52.260;20.746;2022-08-11T15:25:14;101198.20;;;24.70
69545;BMP180;56766;52.260;20.746;2022-08-11T15:27:47;101195.00;;;24.50
69545;BMP180;56766;52.260;20.746;2022-08-11T15:30:37;101195.60;;;24.22
69545;BMP180;56766;52.260;20.746;2022-08-11T15:33:27;101196.00;;;24.00
69545;BMP180;56766;52.260;20.746;2022-08-11T15:36:14;101192.20;;;23.80
69545;BMP180;56766;52.260;20.746;2022-08-11T15:39:08;101185.40;;;23.68
69545;BMP180;56766;52.260;20.746;2022-08-11T15:41:46;101191.60;;;23.50
69545;BMP180;56766;52.260;20.746;2022-08-11T15:44:40;101195.40;;;23.40
69545;BMP180;56766;52.260;20.746;2022-08-11T15:47:37;101197.20;;;23.30
69545;BMP180;56766;52.260;20.746;2022-08-11T15:50:15;101194.00;;;23.20
69545;BMP180;56766;52.260;20.746;2022-08-11T15:53:08;101185.60;;;23.10
69545;BMP180;56766;52.260;20.746;2022-08-11T15:55:37;101182.00;;;23.00
69545;BMP180;56766;52.260;20.746;2022-08-11T15:58:08;101180.20;;;22.80
69545;BMP180;56766;52.260;20.746;2022-08-11T16:00:56;101178.20;;;22.70
69545;BMP180;56766;52.260;20.746;2022-08-11T16:03:56;101177.00;;;22.60
69545;BMP180;56766;52.260;20.746;2022-08-11T16:07:13;101166.80;;;22.54
69545;BMP180;56766;52.260;20.746;2022-08-11T16:09:51;101169.60;;;22.50
69545;BMP180;56766;52.260;20.746;2022-08-11T16:12:24;101182.00;;;22.44
69545;BMP180;56766;52.260;20.746;2022-08-11T16:15:01;101179.40;;;22.40
69545;BMP180;56766;52.260;20.746;2022-08-11T16:18:02;101172.80;;;22.40
69545;BMP180;56766;52.260;20.746;2022-08-11T16:20:33;101164.60;;;22.30
69545;BMP180;56766;52.260;20.746;2022-08-11T16:23:07;101166.60;;;22.30
69545;BMP180;56766;52.260;20.746;2022-08-11T16:25:35;101170.00;;;22.20
69545;BMP180;56766;52.260;20.746;2022-08-11T16:28:05;101164.60;;;22.20
69545;BMP180;56766;52.260;20.746;2022-08-11T16:30:36;101159.80;;;22.16
69545;BMP180;56766;52.260;20.746;2022-08-11T16:33:06;101162.20;;;22.10
69545;BMP180;56766;52.260;20.746;2022-08-11T16:35:36;101166.60;;;22.10
69545;BMP180;56766;52.260;20.746;2022-08-11T16:38:25;101177.80;;;22.00
69545;BMP180;56766;52.260;20.746;2022-08-11T16:41:10;101179.20;;;22.00
69545;BMP180;56766;52.260;20.746;2022-08-11T16:43:49;101175.40;;;21.90
69545;BMP180;56766;52.260;20.746;2022-08-11T16:46:35;101173.20;;;21.80
69545;BMP180;56766;52.260;20.746;2022-08-11T16:49:31;101170.80;;;21.78
69545;BMP180;56766;52.260;20.746;2022-08-11T16:51:59;101173.00;;;21.70
69545;BMP180;56766;52.260;20.746;2022-08-11T16:54:36;101171.40;;;21.60
69545;BMP180;56766;52.260;20.746;2022-08-11T16:57:22;101168.60;;;21.50
69545;BMP180;56766;52.260;20.746;2022-08-11T17:00:12;101170.60;;;21.46
69545;BMP180;56766;52.260;20.746;2022-08-11T17:02:52;101169.60;;;21.40
69545;BMP180;56766;52.260;20.746;2022-08-11T17:05:45;101168.20;;;21.30
69545;BMP180;56766;52.260;20.746;2022-08-11T17:08:46;101169.20;;;21.20
69545;BMP180;56766;52.260;20.746;2022-08-11T17:12:06;101171.00;;;21.10
69545;BMP180;56766;52.260;20.746;2022-08-11T17:14:58;101168.80;;;21.10
69545;BMP180;56766;52.260;20.746;2022-08-11T17:17:36;101171.40;;;21.00
69545;BMP180;56766;52.260;20.746;2022-08-11T17:20:10;101166.80;;;21.00
69545;BMP180;56766;52.260;20.746;2022-08-11T17:22:41;101165.20;;;20.96
69545;BMP180;56766;52.260;20.746;2022-08-11T17:25:29;101168.80;;;20.90
69545;BMP180;56766;52.260;20.746;2022-08-11T17:28:02;101170.00;;;20.90
69545;BMP180;56766;52.260;20.746;2022-08-11T17:30:33;101170.40;;;20.80
69545;BMP180;56766;52.260;20.746;2022-08-11T17:33:21;101168.40;;;20.70
69545;BMP180;56766;52.260;20.746;2022-08-11T17:36:10;101167.00;;;20.60
69545;BMP180;56766;52.260;20.746;2022-08-11T17:38:39;101166.20;;;20.50
69545;BMP180;56766;52.260;20.746;2022-08-11T17:41:06;101163.00;;;20.48
69545;BMP180;56766;52.260;20.746;2022-08-11T17:43:54;101166.80;;;20.40
69545;BMP180;56766;52.260;20.746;2022-08-11T17:46:41;101172.40;;;20.30
69545;BMP180;56766;52.260;20.746;2022-08-11T17:49:29;101176.00;;;20.20
69545;BMP180;56766;52.260;20.746;2022-08-11T17:52:06;101174.40;;;20.10
69545;BMP180;56766;52.260;20.746;2022-08-11T17:54:54;101178.40;;;20.00
69545;BMP180;56766;52.260;20.746;2022-08-11T17:57:41;101178.00;;;19.80
69545;BMP180;56766;52.260;20.746;2022-08-11T18:01:03;101185.40;;;19.70
69545;BMP180;56766;52.260;20.746;2022-08-11T18:03:34;101178.60;;;19.60